createdAt,value
2023-06-11T00:00:40.908Z,20.31
2023-06-11T00:03:07.748Z,20.26
2023-06-11T00:05:34.462Z,20.21
2023-06-11T00:08:00.991Z,20.15
2023-06-11T00:10:27.924Z,20.10
2023-06-11T00:12:54.601Z,20.04
2023-06-11T00:15:21.155Z,19.98
2023-06-11T00:17:47.729Z,19.95
2023-06-11T00:20:14.993Z,19.90
2023-06-11T00:22:43.424Z,19.86
2023-06-11T00:25:11.625Z,19.77
2023-06-11T00:27:38.640Z,19.80
2023-06-11T00:30:07.595Z,19.79
2023-06-11T00:32:37.184Z,19.76
2023-06-11T00:35:04.606Z,19.77
2023-06-11T00:37:31.180Z,19.73
2023-06-11T00:39:57.762Z,19.75
2023-06-11T00:42:24.299Z,19.73
2023-06-11T00:44:52.055Z,19.72
2023-06-11T00:47:19.016Z,19.67
2023-06-11T00:49:45.771Z,19.65
2023-06-11T00:52:16.236Z,19.63
2023-06-11T00:54:43.212Z,19.60
2023-06-11T00:57:09.788Z,19.58
2023-06-11T00:59:37.012Z,19.54
2023-06-11T01:02:10.811Z,19.50
2023-06-11T01:04:41.381Z,19.46
2023-06-11T01:07:10.329Z,19.41
2023-06-11T01:09:38.242Z,19.37
2023-06-11T01:12:05.273Z,19.33
2023-06-11T01:14:31.946Z,19.27
2023-06-11T01:17:10.644Z,19.22
2023-06-11T01:19:53.754Z,19.13
2023-06-11T01:22:29.569Z,19.08
2023-06-11T01:25:15.103Z,19.04
2023-06-11T01:27:45.061Z,18.98
2023-06-11T01:30:13.678Z,18.93
2023-06-11T01:32:40.416Z,18.88
2023-06-11T01:35:09.732Z,18.83
2023-06-11T01:37:41.597Z,18.78
2023-06-11T01:40:08.976Z,18.72
2023-06-11T01:42:45.665Z,18.67
2023-06-11T01:45:12.665Z,18.62
2023-06-11T01:47:39.521Z,18.57
2023-06-11T01:50:07.750Z,18.52
2023-06-11T01:52:34.380Z,18.47
2023-06-11T01:55:00.989Z,18.42
2023-06-11T01:57:27.521Z,18.37
2023-06-11T01:59:54.142Z,18.33
2023-06-11T02:02:21.020Z,18.26
2023-06-11T02:04:47.674Z,18.23
2023-06-11T02:07:14.225Z,18.20
2023-06-11T02:09:40.806Z,18.15
2023-06-11T02:12:07.964Z,18.11
2023-06-11T02:14:34.869Z,18.06
2023-06-11T02:17:01.540Z,18.03
2023-06-11T02:19:34.590Z,17.99
2023-06-11T02:22:01.175Z,17.97
2023-06-11T02:24:27.765Z,17.97
2023-06-11T02:26:54.355Z,17.96
2023-06-11T02:29:21.223Z,17.94
2023-06-11T02:31:48.157Z,17.91
2023-06-11T02:34:15.052Z,17.89
2023-06-11T02:36:41.692Z,17.92
2023-06-11T02:39:08.313Z,17.94
2023-06-11T02:41:34.981Z,17.95
2023-06-11T02:44:01.583Z,17.96
2023-06-11T02:46:28.146Z,17.94
2023-06-11T02:48:54.746Z,17.98
2023-06-11T02:51:21.293Z,17.99
2023-06-11T02:53:47.878Z,18.01
2023-06-11T02:56:14.524Z,18.03
2023-06-11T02:58:41.052Z,18.05
2023-06-11T03:01:07.779Z,18.06
2023-06-11T03:03:34.370Z,18.08
2023-06-11T03:06:02.344Z,18.09
2023-06-11T03:08:29.855Z,18.10
2023-06-11T03:10:56.425Z,18.10
2023-06-11T03:13:23.073Z,18.09
2023-06-11T03:15:52.611Z,18.06
2023-06-11T03:18:19.281Z,18.04
2023-06-11T03:20:45.830Z,18.03
2023-06-11T03:23:15.296Z,18.00
2023-06-11T03:25:44.047Z,17.99
2023-06-11T03:28:11.455Z,17.96
2023-06-11T03:30:38.031Z,17.92
2023-06-11T03:33:05.129Z,17.89
2023-06-11T03:35:32.723Z,17.85
2023-06-11T03:38:08.263Z,17.82
2023-06-11T03:40:35.407Z,17.80
2023-06-11T03:43:01.990Z,17.77
2023-06-11T03:45:31.606Z,17.74
2023-06-11T03:47:59.003Z,17.73
2023-06-11T03:50:25.707Z,17.72
2023-06-11T03:52:52.246Z,17.72
2023-06-11T03:55:18.916Z,17.71
2023-06-11T03:57:45.961Z,17.71
2023-06-11T04:00:13.309Z,17.69
2023-06-11T04:02:43.306Z,17.67
2023-06-11T04:05:14.430Z,17.67
2023-06-11T04:07:43.990Z,17.63
2023-06-11T04:10:10.986Z,17.62
2023-06-11T04:12:37.685Z,17.60
2023-06-11T04:15:04.732Z,17.59
2023-06-11T04:17:31.495Z,17.57
2023-06-11T04:19:58.377Z,17.58
2023-06-11T04:22:25.250Z,17.59
2023-06-11T04:24:51.798Z,17.60
2023-06-11T04:27:18.329Z,17.61
2023-06-11T04:29:44.957Z,17.61
2023-06-11T04:32:11.957Z,17.61
2023-06-11T04:34:38.618Z,17.61
2023-06-11T04:37:06.320Z,17.60
2023-06-11T04:39:33.236Z,17.60
2023-06-11T04:42:01.520Z,17.57
2023-06-11T04:44:28.672Z,17.56
2023-06-11T04:46:55.471Z,17.55
2023-06-11T04:49:22.222Z,17.54
2023-06-11T04:51:51.302Z,17.52
2023-06-11T04:54:17.898Z,17.46
2023-06-11T04:56:46.314Z,17.49
2023-06-11T04:59:14.036Z,17.50
2023-06-11T05:01:41.859Z,17.49
2023-06-11T05:04:08.483Z,17.49
2023-06-11T05:06:35.152Z,17.51
2023-06-11T05:09:04.464Z,17.52
2023-06-11T05:11:31.524Z,17.54
2023-06-11T05:13:58.088Z,17.55
2023-06-11T05:16:24.775Z,17.56
2023-06-11T05:18:51.474Z,17.58
2023-06-11T05:21:18.462Z,17.61
2023-06-11T05:23:45.182Z,17.65
2023-06-11T05:26:13.033Z,17.69
2023-06-11T05:28:42.720Z,17.75
2023-06-11T05:31:09.480Z,17.82
2023-06-11T05:33:37.103Z,17.89
2023-06-11T05:36:05.008Z,17.97
2023-06-11T05:38:31.706Z,18.03
2023-06-11T05:40:58.668Z,18.11
2023-06-11T05:43:26.170Z,18.18
2023-06-11T05:45:52.723Z,18.22
2023-06-11T05:48:20.962Z,18.28
2023-06-11T05:50:48.311Z,18.32
2023-06-11T05:53:15.555Z,18.35
2023-06-11T05:55:43.300Z,18.39
2023-06-11T05:58:13.073Z,18.42
2023-06-11T06:00:40.036Z,18.44
2023-06-11T06:03:06.626Z,18.46
2023-06-11T06:05:35.407Z,18.50
2023-06-11T06:08:01.955Z,18.52
2023-06-11T06:10:28.649Z,18.55
2023-06-11T06:12:55.862Z,18.56
2023-06-11T06:15:22.526Z,18.60
2023-06-11T06:17:49.128Z,18.63
2023-06-11T06:20:24.819Z,18.66
2023-06-11T06:22:52.668Z,18.70
2023-06-11T06:25:19.244Z,18.74
2023-06-11T06:27:46.829Z,18.77
2023-06-11T06:30:15.097Z,18.79
2023-06-11T06:32:41.903Z,18.82
2023-06-11T06:35:09.039Z,18.84
2023-06-11T06:37:36.898Z,18.90
2023-06-11T06:40:03.666Z,18.95
2023-06-11T06:42:30.901Z,18.99
2023-06-11T06:45:01.497Z,19.08
2023-06-11T06:47:28.750Z,19.14
2023-06-11T06:49:55.562Z,19.21
2023-06-11T06:52:22.259Z,19.28
2023-06-11T06:54:48.840Z,19.33
2023-06-11T06:57:15.418Z,19.38
2023-06-11T06:59:42.102Z,19.46
2023-06-11T07:02:10.279Z,19.51
2023-06-11T07:04:37.821Z,19.55
2023-06-11T07:07:04.544Z,19.58
2023-06-11T07:09:31.336Z,19.63
2023-06-11T07:11:58.174Z,19.68
2023-06-11T07:14:24.955Z,19.73
2023-06-11T07:16:51.848Z,19.77
2023-06-11T07:19:19.061Z,19.84
2023-06-11T07:21:45.620Z,19.89
2023-06-11T07:24:12.258Z,19.94
2023-06-11T07:26:39.741Z,19.97
2023-06-11T07:29:12.517Z,20.02
2023-06-11T07:31:40.537Z,20.09
2023-06-11T07:34:07.538Z,20.15
2023-06-11T07:36:34.898Z,20.20
2023-06-11T07:39:01.469Z,20.26
2023-06-11T07:41:28.084Z,20.32
2023-06-11T07:43:54.768Z,20.41
2023-06-11T07:46:22.603Z,20.52
2023-06-11T07:48:49.280Z,20.62
2023-06-11T07:51:20.064Z,20.73
2023-06-11T07:53:49.244Z,20.84
2023-06-11T07:56:15.810Z,20.92
2023-06-11T07:58:42.468Z,21.05
2023-06-11T08:01:09.394Z,21.18
2023-06-11T08:03:36.093Z,21.32
2023-06-11T08:06:02.823Z,21.43
2023-06-11T08:08:29.500Z,21.56
2023-06-11T08:10:56.044Z,21.67
2023-06-11T08:13:22.622Z,21.81
2023-06-11T08:15:49.161Z,21.97
2023-06-11T08:18:17.910Z,22.10
2023-06-11T08:20:46.336Z,22.21
2023-06-11T08:23:13.029Z,22.29
2023-06-11T08:25:40.199Z,22.39
2023-06-11T08:28:06.832Z,22.51
2023-06-11T08:30:33.406Z,22.58
2023-06-11T08:33:00.068Z,22.69
2023-06-11T08:35:26.751Z,22.80
2023-06-11T08:37:53.349Z,22.89
2023-06-11T08:40:22.161Z,23.08
2023-06-11T08:42:48.873Z,23.26
2023-06-11T08:45:15.462Z,23.47
2023-06-11T08:47:49.181Z,23.67
2023-06-11T08:50:15.836Z,23.81
2023-06-11T08:52:43.902Z,24.01
2023-06-11T08:55:10.544Z,24.19
2023-06-11T08:57:37.424Z,24.40
2023-06-11T09:00:04.523Z,24.61
2023-06-11T09:02:31.460Z,24.79
2023-06-11T09:04:58.285Z,24.98
2023-06-11T09:07:25.190Z,25.18
2023-06-11T09:10:06.698Z,25.40
2023-06-11T09:12:33.359Z,25.60
2023-06-11T09:15:00.801Z,25.75
2023-06-11T09:17:41.481Z,25.92
2023-06-11T09:20:11.183Z,26.09
2023-06-11T09:22:41.422Z,26.22
2023-06-11T09:25:10.357Z,26.41
2023-06-11T09:27:38.593Z,26.60
2023-06-11T09:30:13.261Z,26.78
2023-06-11T09:32:42.434Z,26.98
2023-06-11T09:35:10.430Z,27.14
2023-06-11T09:37:53.031Z,27.35
2023-06-11T09:40:22.024Z,27.51
2023-06-11T09:42:49.480Z,27.70
2023-06-11T09:45:20.862Z,27.89
2023-06-11T09:47:48.589Z,28.22
2023-06-11T09:50:16.960Z,28.51
2023-06-11T09:52:45.600Z,28.73
2023-06-11T09:55:12.830Z,28.98
2023-06-11T09:57:40.742Z,29.36
2023-06-11T10:00:09.443Z,29.73
2023-06-11T10:02:40.581Z,30.11
2023-06-11T10:05:09.579Z,30.52
2023-06-11T10:07:49.829Z,30.89
2023-06-11T10:10:20.768Z,31.22
2023-06-11T10:12:54.700Z,31.58
2023-06-11T10:15:25.259Z,32.05
2023-06-11T10:17:53.031Z,32.37
2023-06-11T10:20:38.822Z,32.65
2023-06-11T10:23:07.688Z,32.79
2023-06-11T10:25:40.650Z,32.91
2023-06-11T10:28:08.911Z,33.09
2023-06-11T10:30:35.618Z,33.22
2023-06-11T10:33:02.557Z,33.26
2023-06-11T10:35:32.698Z,33.43
2023-06-11T10:38:06.071Z,33.56
2023-06-11T10:40:37.374Z,33.64
2023-06-11T10:43:15.361Z,33.79
2023-06-11T10:45:42.341Z,33.97
2023-06-11T10:48:09.164Z,34.06
2023-06-11T10:50:36.335Z,34.21
2023-06-11T10:53:09.718Z,34.29
2023-06-11T10:55:36.562Z,34.37
2023-06-11T10:58:03.376Z,34.39
2023-06-11T11:00:30.681Z,34.46
2023-06-11T11:02:59.007Z,34.51
2023-06-11T11:05:27.162Z,34.59
2023-06-11T11:07:54.018Z,34.68
2023-06-11T11:10:28.123Z,34.77
2023-06-11T11:12:55.349Z,34.87
2023-06-11T11:15:22.220Z,34.98
2023-06-11T11:17:49.483Z,34.97
2023-06-11T11:20:18.083Z,34.99
2023-06-11T11:22:55.005Z,35.06
2023-06-11T11:25:23.314Z,35.21
2023-06-11T11:27:49.888Z,35.29
2023-06-11T11:30:17.716Z,35.30
2023-06-11T11:32:44.501Z,35.34
2023-06-11T11:35:13.630Z,35.42
2023-06-11T11:37:40.490Z,35.57
2023-06-11T11:40:08.331Z,35.71
2023-06-11T11:42:47.136Z,35.88
2023-06-11T11:45:14.437Z,35.91
2023-06-11T11:47:42.833Z,36.02
2023-06-11T11:50:19.001Z,36.12
2023-06-11T11:52:45.904Z,36.28
2023-06-11T11:55:12.481Z,36.49
2023-06-11T11:57:40.028Z,36.68
2023-06-11T12:00:07.586Z,36.80
2023-06-11T12:02:34.599Z,36.90
2023-06-11T12:05:01.214Z,36.94
2023-06-11T12:07:27.796Z,36.89
2023-06-11T12:09:54.334Z,36.85
2023-06-11T12:12:20.896Z,36.81
2023-06-11T12:14:47.436Z,36.68
2023-06-11T12:17:14.022Z,36.45
2023-06-11T12:19:40.601Z,36.32
2023-06-11T12:22:07.302Z,36.20
2023-06-11T12:24:34.077Z,36.04
2023-06-11T12:27:03.189Z,35.79
2023-06-11T12:29:31.988Z,35.52
2023-06-11T12:31:58.593Z,35.27
2023-06-11T12:34:25.173Z,35.10
2023-06-11T12:36:51.697Z,34.96
2023-06-11T12:39:18.251Z,34.83
2023-06-11T12:41:45.030Z,34.76
2023-06-11T12:44:11.582Z,34.70
2023-06-11T12:46:38.198Z,34.67
2023-06-11T12:49:04.849Z,34.58
2023-06-11T12:51:31.535Z,34.49
2023-06-11T12:53:58.090Z,34.31
2023-06-11T12:56:24.741Z,34.16
2023-06-11T12:58:51.462Z,34.04
2023-06-11T13:01:18.451Z,33.95
2023-06-11T13:03:45.094Z,33.92
2023-06-11T13:06:11.670Z,33.91
2023-06-11T13:08:38.417Z,33.90
2023-06-11T13:11:04.981Z,33.88
2023-06-11T13:13:31.604Z,33.90
2023-06-11T13:15:58.491Z,33.92
2023-06-11T13:18:25.353Z,33.95
2023-06-11T13:20:51.916Z,33.96
2023-06-11T13:23:18.724Z,34.01
2023-06-11T13:25:47.500Z,34.03
2023-06-11T13:28:15.137Z,34.03
2023-06-11T13:30:41.734Z,34.01
2023-06-11T13:33:08.362Z,34.04
2023-06-11T13:35:34.977Z,34.11
2023-06-11T13:38:01.611Z,34.24
2023-06-11T13:40:28.187Z,34.40
2023-06-11T13:42:54.738Z,34.53
2023-06-11T13:45:21.296Z,34.66
2023-06-11T13:47:47.944Z,34.75
2023-06-11T13:50:14.685Z,34.82
2023-06-11T13:52:41.347Z,34.97
2023-06-11T13:55:08.212Z,35.11
2023-06-11T13:57:34.784Z,35.32
2023-06-11T14:00:01.324Z,35.58
2023-06-11T14:02:38.351Z,35.95
2023-06-11T14:05:05.566Z,36.38
2023-06-11T14:07:32.156Z,36.80
2023-06-11T14:09:58.777Z,37.14
2023-06-11T14:12:25.323Z,37.49
2023-06-11T14:14:51.884Z,37.87
2023-06-11T14:17:18.412Z,38.19
2023-06-11T14:19:44.996Z,38.53
2023-06-11T14:22:11.528Z,38.86
2023-06-11T14:24:38.070Z,39.08
2023-06-11T14:27:04.902Z,39.30
2023-06-11T14:29:31.577Z,39.53
2023-06-11T14:32:02.110Z,39.79
2023-06-11T14:34:29.381Z,40.14
2023-06-11T14:36:56.154Z,40.40
2023-06-11T14:39:22.748Z,40.64
2023-06-11T14:41:49.272Z,40.91
2023-06-11T14:44:15.914Z,41.06
2023-06-11T14:46:42.550Z,41.21
2023-06-11T14:49:11.915Z,41.35
2023-06-11T14:51:38.731Z,41.54
2023-06-11T14:54:05.373Z,41.80
2023-06-11T14:56:31.930Z,42.01
2023-06-11T14:58:58.531Z,42.12
2023-06-11T15:01:25.121Z,42.28
2023-06-11T15:03:51.762Z,42.46
2023-06-11T15:06:18.374Z,42.58
2023-06-11T15:08:44.958Z,42.66
2023-06-11T15:11:11.504Z,42.72
2023-06-11T15:13:38.169Z,42.68
2023-06-11T15:16:04.941Z,42.69
2023-06-11T15:18:31.773Z,42.70
2023-06-11T15:20:58.330Z,42.59
2023-06-11T15:23:25.016Z,42.48
2023-06-11T15:25:52.261Z,42.36
2023-06-11T15:28:19.159Z,42.23
2023-06-11T15:30:45.816Z,42.23
2023-06-11T15:33:13.102Z,42.32
2023-06-11T15:35:39.762Z,42.37
2023-06-11T15:38:06.321Z,42.37
2023-06-11T15:40:32.969Z,42.33
2023-06-11T15:42:59.720Z,42.19
2023-06-11T15:45:26.280Z,41.74
2023-06-11T15:47:53.599Z,41.58
2023-06-11T15:50:20.272Z,41.53
2023-06-11T15:52:46.908Z,41.43
2023-06-11T15:55:13.672Z,41.33
2023-06-11T15:57:40.823Z,41.40
2023-06-11T16:00:09.526Z,41.52
2023-06-11T16:02:36.698Z,41.70
2023-06-11T16:05:03.448Z,41.83
2023-06-11T16:07:30.057Z,41.93
2023-06-11T16:09:57.452Z,41.98
2023-06-11T16:12:24.027Z,41.97
2023-06-11T16:14:50.572Z,41.96
2023-06-11T16:18:38.436Z,42.12
2023-06-11T16:21:04.992Z,42.22
2023-06-11T16:23:31.607Z,42.21
2023-06-11T16:25:58.136Z,42.25
2023-06-11T16:28:25.033Z,42.41
2023-06-11T16:30:51.575Z,42.58
2023-06-11T16:33:18.299Z,42.79
2023-06-11T16:35:45.002Z,43.00
2023-06-11T16:38:11.599Z,43.17
2023-06-11T16:40:38.154Z,43.32
2023-06-11T16:43:04.716Z,43.41
2023-06-11T16:45:31.434Z,43.49
2023-06-11T16:47:58.506Z,43.44
2023-06-11T16:50:25.188Z,43.29
2023-06-11T16:52:51.821Z,43.19
2023-06-11T16:55:20.687Z,43.20
2023-06-11T16:57:51.083Z,43.23
2023-06-11T17:00:18.167Z,43.06
2023-06-11T17:02:45.935Z,42.67
2023-06-11T17:05:12.612Z,42.18
2023-06-11T17:07:39.553Z,41.54
2023-06-11T17:10:08.237Z,40.73
2023-06-11T17:12:34.975Z,40.05
2023-06-11T17:15:01.603Z,39.40
2023-06-11T17:17:28.304Z,38.78
2023-06-11T17:19:54.956Z,38.11
2023-06-11T17:22:21.501Z,37.31
2023-06-11T17:24:48.098Z,36.59
2023-06-11T17:27:14.761Z,36.00
2023-06-11T17:29:41.362Z,35.51
2023-06-11T17:32:08.514Z,35.13
2023-06-11T17:34:36.797Z,34.72
2023-06-11T17:37:05.695Z,34.34
2023-06-11T17:39:32.237Z,34.01
2023-06-11T17:41:58.817Z,33.68
2023-06-11T17:44:25.610Z,33.41
2023-06-11T17:46:52.241Z,33.19
2023-06-11T17:49:19.004Z,32.97
2023-06-11T17:51:45.633Z,32.77
2023-06-11T17:54:12.206Z,32.56
2023-06-11T17:56:38.766Z,32.40
2023-06-11T17:59:05.328Z,32.23
2023-06-11T18:01:32.238Z,32.07
2023-06-11T18:03:58.863Z,31.91
2023-06-11T18:06:25.642Z,31.73
2023-06-11T18:08:52.518Z,31.57
2023-06-11T18:11:19.094Z,31.40
2023-06-11T18:13:45.658Z,31.23
2023-06-11T18:16:12.543Z,31.08
2023-06-11T18:18:39.161Z,30.94
2023-06-11T18:21:05.712Z,30.79
2023-06-11T18:23:32.310Z,30.66
2023-06-11T18:25:58.913Z,30.54
2023-06-11T18:28:26.547Z,30.44
2023-06-11T18:30:53.982Z,30.32
2023-06-11T18:33:20.640Z,30.22
2023-06-11T18:35:47.268Z,30.10
2023-06-11T18:38:13.889Z,29.99
2023-06-11T18:40:40.477Z,29.88
2023-06-11T18:43:07.006Z,29.75
2023-06-11T18:45:33.548Z,29.63
2023-06-11T18:48:00.548Z,29.52
2023-06-11T18:50:27.322Z,29.41
2023-06-11T18:52:54.183Z,29.31
2023-06-11T18:55:20.896Z,29.20
2023-06-11T18:57:48.182Z,29.09
2023-06-11T19:00:15.167Z,28.98
2023-06-11T19:02:42.333Z,28.86
2023-06-11T19:05:09.400Z,28.77
2023-06-11T19:07:36.154Z,28.66
2023-06-11T19:10:02.779Z,28.54
2023-06-11T19:12:29.504Z,28.40
2023-06-11T19:14:56.005Z,28.30
2023-06-11T19:17:22.725Z,28.19
2023-06-11T19:19:49.312Z,28.07
2023-06-11T19:22:15.912Z,27.96
2023-06-11T19:24:42.468Z,27.86
2023-06-11T19:27:09.077Z,27.74
2023-06-11T19:29:35.662Z,27.63
2023-06-11T19:32:02.192Z,27.52
2023-06-11T19:34:28.813Z,27.45
2023-06-11T19:36:55.390Z,27.37
2023-06-11T19:39:21.977Z,27.28
2023-06-11T19:41:48.714Z,27.19
2023-06-11T19:44:15.298Z,27.12
2023-06-11T19:46:41.959Z,27.05
2023-06-11T19:49:08.557Z,26.96
2023-06-11T19:51:35.103Z,26.89
2023-06-11T19:54:01.902Z,26.78
2023-06-11T19:56:28.501Z,26.68
2023-06-11T19:58:55.043Z,26.61
2023-06-11T20:01:21.620Z,26.50
2023-06-11T20:03:48.175Z,26.40
2023-06-11T20:06:14.916Z,26.31
2023-06-11T20:08:41.585Z,26.22
2023-06-11T20:11:08.680Z,26.13
2023-06-11T20:13:36.108Z,26.04
2023-06-11T20:16:03.296Z,25.97
2023-06-11T20:18:30.008Z,25.88
2023-06-11T20:20:56.704Z,25.76
2023-06-11T20:23:23.342Z,25.69
2023-06-11T20:25:50.033Z,25.61
2023-06-11T20:28:16.622Z,25.52
2023-06-11T20:30:43.219Z,25.46
2023-06-11T20:33:09.790Z,25.38
2023-06-11T20:35:36.363Z,25.30
2023-06-11T20:38:02.966Z,25.22
2023-06-11T20:40:29.662Z,25.14
2023-06-11T20:42:56.279Z,25.07
2023-06-11T20:45:22.839Z,24.99
2023-06-11T20:47:49.539Z,24.92
2023-06-11T20:50:16.182Z,24.85
2023-06-11T20:52:43.806Z,24.78
2023-06-11T20:55:10.480Z,24.71
2023-06-11T20:57:36.988Z,24.63
2023-06-11T21:00:04.453Z,24.56
2023-06-11T21:02:31.457Z,24.49
2023-06-11T21:04:58.047Z,24.43
2023-06-11T21:07:24.616Z,24.37
2023-06-11T21:09:52.952Z,24.31
2023-06-11T21:12:19.700Z,24.24
2023-06-11T21:14:46.287Z,24.17
2023-06-11T21:17:13.093Z,24.10
2023-06-11T21:19:39.761Z,24.04
2023-06-11T21:22:06.496Z,23.97
2023-06-11T21:24:33.133Z,23.92
2023-06-11T21:26:59.720Z,23.84
2023-06-11T21:29:26.357Z,23.77
2023-06-11T21:31:53.160Z,23.72
2023-06-11T21:34:19.852Z,23.66
2023-06-11T21:36:46.368Z,23.59
2023-06-11T21:39:12.955Z,23.56
2023-06-11T21:41:39.498Z,23.51
2023-06-11T21:44:06.040Z,23.48
2023-06-11T21:46:32.643Z,23.42
2023-06-11T21:48:59.219Z,23.37
2023-06-11T21:51:25.769Z,23.30
2023-06-11T21:53:52.417Z,23.23
2023-06-11T21:56:19.001Z,23.20
2023-06-11T21:58:45.600Z,23.15
2023-06-11T22:01:12.170Z,23.11
2023-06-11T22:03:38.764Z,23.05
2023-06-11T22:06:05.711Z,23.01
2023-06-11T22:08:32.291Z,22.92
2023-06-11T22:10:58.822Z,22.88
2023-06-11T22:13:25.405Z,22.84
2023-06-11T22:15:51.941Z,22.79
2023-06-11T22:18:18.513Z,22.76
2023-06-11T22:20:45.069Z,22.71
2023-06-11T22:23:11.802Z,22.67
2023-06-11T22:25:38.314Z,22.62
2023-06-11T22:28:05.150Z,22.56
2023-06-11T22:30:38.036Z,22.51
2023-06-11T22:33:14.580Z,22.47
2023-06-11T22:35:41.123Z,22.42
2023-06-11T22:38:07.695Z,22.36
2023-06-11T22:40:34.233Z,22.32
2023-06-11T22:43:00.778Z,22.25
2023-06-11T22:45:27.302Z,22.22
2023-06-11T22:47:53.930Z,22.19
2023-06-11T22:50:20.494Z,22.13
2023-06-11T22:52:47.175Z,22.09
2023-06-11T22:55:13.737Z,22.06
2023-06-11T22:57:40.307Z,22.02
2023-06-11T23:00:07.701Z,21.99
2023-06-11T23:02:37.109Z,21.94
2023-06-11T23:05:04.694Z,21.89
2023-06-11T23:07:31.453Z,21.85
2023-06-11T23:09:58.254Z,21.83
2023-06-11T23:12:24.857Z,21.77
2023-06-11T23:14:51.373Z,21.75
2023-06-11T23:17:17.932Z,21.72
2023-06-11T23:19:44.451Z,21.69
2023-06-11T23:22:11.023Z,21.63
2023-06-11T23:24:37.554Z,21.61
2023-06-11T23:27:04.493Z,21.59
2023-06-11T23:29:31.042Z,21.56
2023-06-11T23:31:57.709Z,21.55
2023-06-11T23:34:24.237Z,21.52
2023-06-11T23:36:51.075Z,21.49
2023-06-11T23:39:17.634Z,21.43
2023-06-11T23:41:44.208Z,21.38
2023-06-11T23:44:11.027Z,21.33
2023-06-11T23:46:38.068Z,21.31
2023-06-11T23:49:04.740Z,21.25
2023-06-11T23:51:31.596Z,21.20
2023-06-11T23:53:58.125Z,21.15
2023-06-11T23:56:24.820Z,21.10
2023-06-11T23:58:51.528Z,21.08
